Decoded Metar for OPSK (SUKKUR in PAKISTAN) (IATA:SKZ) | Meteo·Mobile Aviation Weather
aviador You're here:

OPSK Decoded Metar

SUKKUR in PAKISTAN
Report Time2019-07-22 01:00:00
UTC Time2019-07-22 01:32:10
Flight Rules ifr IFR
WindCalm
Visibility4000 m
Phenomena:Haze
Clouds:N/A
Expected CloudBase > 2,800 ft AGL from Temp-Dew spread
CeilingNone
Temp31°C (ISA +16)
Dew Point24°C (66% RH)
Heat Index36.4°C
QNH0996 hPa
Density Alt3,028 ft
Elevation190 ft
Report Wrong Elevation
Raw Report
METAR OPSK 220100Z 00000KT 4000 HZ NSC 31/24 Q0996 NOSIG=

Extra information for OPSK:More info

Metar Taf Metar & Taf Last 4 Metars F.Rules Stats Wind Profile Meteogram Temp Stats Airport Information Weather charts Add Link Nearby VenuesMetar ALERT Operation Metar Decoded Social comments